createdAt,value
2019-01-17T00:02:12.981Z,23.63
2019-01-17T00:04:58.463Z,20.53
2019-01-17T00:07:44.078Z,28.57
2019-01-17T00:10:26.118Z,27.70
2019-01-17T00:13:11.964Z,27.03
2019-01-17T00:15:47.107Z,30.03
2019-01-17T00:18:33.698Z,30.43
2019-01-17T00:23:37.845Z,37.47
2019-01-17T00:26:12.675Z,41.13
2019-01-17T00:28:42.680Z,41.40
2019-01-17T00:31:20.558Z,38.53
2019-01-17T00:33:55.360Z,40.40
2019-01-17T00:36:25.776Z,37.97
2019-01-17T00:39:01.052Z,34.50
2019-01-17T00:41:33.077Z,42.63
2019-01-17T00:44:19.622Z,36.70
2019-01-17T00:46:48.751Z,40.17
2019-01-17T00:49:17.655Z,34.47
2019-01-17T00:51:55.372Z,35.73
2019-01-17T00:54:36.826Z,36.20
2019-01-17T00:57:12.008Z,37.97
2019-01-17T00:59:47.635Z,35.67
2019-01-17T01:02:25.416Z,31.20
2019-01-17T01:08:04.949Z,30.20
2019-01-17T01:10:48.565Z,31.23
2019-01-17T01:13:17.637Z,25.60
2019-01-17T01:15:53.969Z,28.57
2019-01-17T01:18:22.965Z,23.90
2019-01-17T01:20:58.159Z,20.17
2019-01-17T01:23:33.031Z,18.73
2019-01-17T01:26:02.123Z,18.70
2019-01-17T01:28:31.147Z,20.00
2019-01-17T01:31:00.176Z,18.27
2019-01-17T01:33:36.507Z,16.40
2019-01-17T01:36:22.129Z,14.23
2019-01-17T01:39:06.195Z,12.60
2019-01-17T01:41:37.277Z,11.33
2019-01-17T01:44:08.682Z,13.40
2019-01-17T01:46:43.534Z,13.00
2019-01-17T01:49:24.440Z,9.93
2019-01-17T01:51:53.905Z,9.90
2019-01-17T01:54:22.170Z,10.83
2019-01-17T01:56:49.634Z,11.87
2019-01-17T01:59:17.034Z,13.97
2019-01-17T02:01:44.413Z,9.90
2019-01-17T02:04:11.951Z,7.63
2019-01-17T02:06:39.277Z,9.63
2019-01-17T02:09:07.743Z,10.60
2019-01-17T02:11:35.165Z,8.80
2019-01-17T02:14:02.750Z,9.87
2019-01-17T02:16:30.215Z,9.97
2019-01-17T02:18:57.558Z,9.50
2019-01-17T02:21:25.061Z,9.80
2019-01-17T02:23:52.680Z,8.70
2019-01-17T02:26:20.143Z,8.57
2019-01-17T02:28:47.471Z,8.73
2019-01-17T02:31:14.839Z,6.20
2019-01-17T02:33:42.193Z,8.87
2019-01-17T02:36:10.864Z,8.53
2019-01-17T02:38:38.311Z,7.63
2019-01-17T02:41:06.824Z,5.73
2019-01-17T02:43:34.272Z,5.30
2019-01-17T02:46:01.566Z,8.13
2019-01-17T02:48:29.081Z,7.60
2019-01-17T02:50:56.744Z,7.27
2019-01-17T02:53:24.151Z,6.60
2019-01-17T02:55:51.681Z,8.60
2019-01-17T02:58:19.019Z,11.03
2019-01-17T03:00:46.434Z,10.77
2019-01-17T03:03:13.827Z,10.40
2019-01-17T03:05:41.182Z,5.03
2019-01-17T03:08:08.567Z,11.00
2019-01-17T03:10:36.003Z,9.97
2019-01-17T03:13:03.347Z,7.70
2019-01-17T03:15:30.873Z,4.43
2019-01-17T03:17:58.522Z,4.23
2019-01-17T03:20:25.926Z,5.33
2019-01-17T03:22:53.391Z,5.97
2019-01-17T03:25:20.833Z,8.77
2019-01-17T03:27:48.329Z,7.37
2019-01-17T03:30:16.538Z,6.20
2019-01-17T03:32:43.895Z,6.70
2019-01-17T03:35:11.318Z,8.43
2019-01-17T03:37:38.738Z,8.63
2019-01-17T03:40:07.778Z,4.70
2019-01-17T03:42:35.085Z,5.57
2019-01-17T03:45:02.800Z,5.37
2019-01-17T03:47:30.204Z,4.87
2019-01-17T03:49:57.713Z,5.67
2019-01-17T03:52:25.098Z,6.70
2019-01-17T03:54:53.970Z,4.80
2019-01-17T03:57:21.626Z,4.83
2019-01-17T03:59:51.866Z,5.00
2019-01-17T04:02:19.222Z,5.77
2019-01-17T04:04:46.607Z,6.40
2019-01-17T04:07:14.018Z,7.63
2019-01-17T04:09:41.373Z,5.43
2019-01-17T04:12:08.776Z,6.60
2019-01-17T04:14:36.236Z,7.43
2019-01-17T04:17:05.289Z,8.97
2019-01-17T04:19:32.704Z,5.23
2019-01-17T04:22:00.082Z,7.93
2019-01-17T04:24:27.476Z,10.97
2019-01-17T04:26:54.892Z,7.63
2019-01-17T04:29:22.393Z,11.37
2019-01-17T04:31:49.807Z,8.00
2019-01-17T04:34:18.830Z,8.90
2019-01-17T04:36:46.294Z,7.53
2019-01-17T04:39:15.265Z,10.53
2019-01-17T04:41:42.654Z,8.10
2019-01-17T04:44:10.114Z,7.63
2019-01-17T04:46:37.633Z,8.70
2019-01-17T04:49:05.116Z,9.43
2019-01-17T04:51:32.617Z,8.13
2019-01-17T04:54:00.045Z,9.57
2019-01-17T04:56:27.402Z,7.20
2019-01-17T04:58:54.762Z,7.73
2019-01-17T05:01:22.588Z,9.63
2019-01-17T05:03:49.934Z,7.43
2019-01-17T05:06:17.299Z,11.37
2019-01-17T05:08:44.740Z,9.83
2019-01-17T05:11:12.036Z,12.93
2019-01-17T05:13:39.421Z,9.97
2019-01-17T05:16:07.019Z,12.30
2019-01-17T05:18:36.021Z,12.97
2019-01-17T05:21:03.506Z,13.20
2019-01-17T05:23:30.876Z,14.40
2019-01-17T05:25:58.376Z,16.80
2019-01-17T05:28:25.811Z,13.93
2019-01-17T05:30:53.117Z,13.73
2019-01-17T05:33:20.552Z,13.03
2019-01-17T05:35:47.890Z,10.40
2019-01-17T05:38:15.348Z,15.60
2019-01-17T05:40:42.836Z,12.50
2019-01-17T05:43:10.183Z,14.10
2019-01-17T05:45:39.186Z,18.13
2019-01-17T05:48:06.653Z,15.67
2019-01-17T05:50:34.032Z,16.07
2019-01-17T05:53:01.494Z,19.03
2019-01-17T05:55:28.924Z,21.63
2019-01-17T05:57:56.350Z,25.60
2019-01-17T06:00:23.820Z,21.57
2019-01-17T06:02:51.243Z,17.37
2019-01-17T06:05:18.622Z,19.33
2019-01-17T06:07:46.628Z,19.00
2019-01-17T06:10:16.893Z,19.33
2019-01-17T06:12:45.106Z,17.07
2019-01-17T06:15:13.729Z,21.40
2019-01-17T06:17:41.147Z,19.73
2019-01-17T06:20:10.432Z,18.77
2019-01-17T06:22:37.942Z,19.47
2019-01-17T06:25:05.366Z,18.57
2019-01-17T06:27:32.680Z,23.10
2019-01-17T06:30:00.181Z,21.30
2019-01-17T06:32:27.562Z,24.13
2019-01-17T06:34:55.032Z,25.40
2019-01-17T06:37:22.491Z,25.50
2019-01-17T06:39:49.843Z,30.93
2019-01-17T06:42:17.218Z,32.17
2019-01-17T06:44:44.591Z,33.17
2019-01-17T06:47:13.984Z,32.97
2019-01-17T06:49:43.129Z,33.70
2019-01-17T06:52:10.287Z,29.03
2019-01-17T06:54:37.786Z,32.10
2019-01-17T06:57:05.112Z,35.33
2019-01-17T06:59:32.474Z,29.10
2019-01-17T07:01:59.825Z,32.07
2019-01-17T07:04:27.373Z,27.23
2019-01-17T07:06:54.718Z,30.43
2019-01-17T07:09:22.050Z,26.47
2019-01-17T07:11:49.625Z,28.70
2019-01-17T07:14:18.808Z,27.40
2019-01-17T07:16:46.249Z,23.40
2019-01-17T07:19:13.757Z,25.13
2019-01-17T07:21:41.274Z,25.77
2019-01-17T07:24:08.728Z,21.33
2019-01-17T07:26:36.277Z,21.27
2019-01-17T07:29:03.647Z,21.50
2019-01-17T07:31:31.101Z,19.43
2019-01-17T07:33:58.510Z,16.70
2019-01-17T07:36:27.590Z,17.67
2019-01-17T07:38:54.986Z,16.23
2019-01-17T07:41:22.401Z,20.53
2019-01-17T07:43:49.735Z,19.60
2019-01-17T07:46:17.562Z,19.60
2019-01-17T07:48:44.990Z,15.77
2019-01-17T07:51:12.433Z,16.57
2019-01-17T07:53:39.849Z,20.17
2019-01-17T07:56:07.330Z,17.93
2019-01-17T07:58:36.401Z,18.97
2019-01-17T08:01:03.843Z,17.00
2019-01-17T08:03:31.259Z,16.73
2019-01-17T08:05:58.671Z,15.47
2019-01-17T08:08:26.109Z,17.17
2019-01-17T08:10:53.471Z,16.27
2019-01-17T08:13:21.070Z,16.90
2019-01-17T08:15:48.483Z,16.83
2019-01-17T08:18:18.807Z,12.27
2019-01-17T08:20:46.002Z,18.60
2019-01-17T08:23:13.436Z,15.33
2019-01-17T08:25:43.061Z,16.57
2019-01-17T08:28:10.521Z,15.17
2019-01-17T08:30:38.107Z,17.47
2019-01-17T08:33:05.427Z,16.83
2019-01-17T08:35:32.786Z,12.67
2019-01-17T08:38:00.282Z,15.70
2019-01-17T08:40:29.268Z,16.07
2019-01-17T08:42:56.751Z,16.63
2019-01-17T08:45:24.143Z,14.93
2019-01-17T08:47:51.583Z,13.73
2019-01-17T08:50:19.759Z,15.20
2019-01-17T08:52:47.173Z,17.77
2019-01-17T08:55:14.674Z,15.37
2019-01-17T08:57:42.080Z,18.03
2019-01-17T09:00:13.731Z,19.37
2019-01-17T09:02:41.239Z,21.47
2019-01-17T09:05:09.197Z,18.40
2019-01-17T09:07:36.705Z,18.50
2019-01-17T09:10:05.941Z,20.83
2019-01-17T09:12:33.403Z,21.93
2019-01-17T09:15:00.726Z,21.87
2019-01-17T09:17:28.219Z,21.07
2019-01-17T09:19:55.571Z,18.27
2019-01-17T09:22:23.134Z,19.70
2019-01-17T09:24:50.484Z,21.00
2019-01-17T09:27:21.130Z,16.43
2019-01-17T09:29:48.509Z,21.67
2019-01-17T09:32:16.026Z,18.37
2019-01-17T09:34:44.308Z,23.37
2019-01-17T09:37:11.764Z,21.77
2019-01-17T09:39:40.628Z,20.63
2019-01-17T09:42:08.038Z,21.20
2019-01-17T09:44:35.468Z,21.03
2019-01-17T09:47:03.457Z,18.90
2019-01-17T09:49:30.982Z,21.17
2019-01-17T09:51:58.467Z,19.80
2019-01-17T09:54:31.722Z,16.10
2019-01-17T09:56:59.112Z,17.30
2019-01-17T09:59:26.709Z,16.30
2019-01-17T10:01:54.140Z,16.33
2019-01-17T10:04:26.575Z,17.50
2019-01-17T10:06:52.590Z,15.80
2019-01-17T10:09:21.688Z,15.77
2019-01-17T10:11:49.264Z,20.70
2019-01-17T10:14:17.257Z,15.37
2019-01-17T10:16:47.888Z,15.77
2019-01-17T10:19:16.615Z,14.50
2019-01-17T10:22:03.455Z,13.03
2019-01-17T10:24:32.580Z,16.47
2019-01-17T10:27:01.597Z,16.27
2019-01-17T10:29:39.505Z,16.23
2019-01-17T10:32:08.524Z,19.37
2019-01-17T10:34:40.502Z,17.17
2019-01-17T10:37:26.402Z,15.07
2019-01-17T10:40:01.316Z,11.07
2019-01-17T10:42:48.719Z,12.53
2019-01-17T10:45:17.709Z,12.67
2019-01-17T10:48:01.756Z,11.03
2019-01-17T10:50:48.837Z,16.17
2019-01-17T10:53:23.312Z,11.43
2019-01-17T10:56:02.738Z,14.87
2019-01-17T10:58:39.728Z,18.80
2019-01-17T11:01:11.910Z,14.70
2019-01-17T11:04:02.227Z,12.13
2019-01-17T11:06:47.657Z,12.63
2019-01-17T11:09:31.644Z,14.20
2019-01-17T11:12:00.844Z,12.33
2019-01-17T11:14:36.049Z,17.50
2019-01-17T11:17:10.658Z,14.43
2019-01-17T11:19:45.048Z,15.60
2019-01-17T11:22:34.744Z,14.20
2019-01-17T11:25:10.783Z,18.70
2019-01-17T11:28:00.878Z,15.60
2019-01-17T11:30:55.272Z,12.73
2019-01-17T11:33:25.998Z,14.03
2019-01-17T11:35:58.285Z,15.43
2019-01-17T11:38:45.272Z,18.00
2019-01-17T11:41:29.434Z,18.60
2019-01-17T11:44:17.564Z,20.80
2019-01-17T11:46:51.137Z,18.57
2019-01-17T11:49:27.292Z,18.33
2019-01-17T11:52:05.645Z,18.63
2019-01-17T11:54:53.782Z,23.80
2019-01-17T11:57:33.490Z,21.63
2019-01-17T12:00:19.387Z,23.10
2019-01-17T12:02:53.986Z,21.50
2019-01-17T12:05:24.264Z,17.87
2019-01-17T12:07:58.803Z,16.50
2019-01-17T12:10:26.325Z,14.80
2019-01-17T12:12:53.807Z,13.60
2019-01-17T12:15:21.254Z,14.93
2019-01-17T12:17:49.123Z,15.67
2019-01-17T12:20:16.597Z,17.33
2019-01-17T12:22:44.470Z,19.90
2019-01-17T12:25:11.872Z,15.73
2019-01-17T12:27:42.722Z,17.07
2019-01-17T12:30:10.845Z,17.97
2019-01-17T12:32:38.796Z,18.17
2019-01-17T12:35:08.285Z,21.57
2019-01-17T12:37:36.851Z,17.13
2019-01-17T12:40:05.911Z,23.00
2019-01-17T12:42:35.018Z,19.77
2019-01-17T12:45:02.474Z,20.83
2019-01-17T12:47:30.003Z,18.27
2019-01-17T12:50:01.238Z,16.13
2019-01-17T12:52:28.723Z,20.27
2019-01-17T12:54:56.149Z,22.03
2019-01-17T12:57:25.287Z,19.60
2019-01-17T12:59:53.669Z,16.47
2019-01-17T13:02:21.153Z,15.43
2019-01-17T13:04:48.515Z,16.37
2019-01-17T13:07:17.675Z,25.03
2019-01-17T13:09:47.733Z,19.90
2019-01-17T13:12:16.789Z,17.80
2019-01-17T13:14:44.186Z,17.97
2019-01-17T13:17:11.911Z,17.00
2019-01-17T13:19:41.080Z,20.23
2019-01-17T13:22:08.735Z,19.37
2019-01-17T13:24:36.166Z,21.00
2019-01-17T13:27:05.901Z,20.57
2019-01-17T13:29:33.367Z,24.73
2019-01-17T13:32:00.851Z,24.73
2019-01-17T13:34:28.173Z,22.60
2019-01-17T13:36:55.703Z,26.13
2019-01-17T13:39:23.082Z,23.33
2019-01-17T13:41:50.564Z,29.57
2019-01-17T13:44:21.411Z,26.63
2019-01-17T13:46:50.379Z,29.10
2019-01-17T13:49:17.833Z,30.07
2019-01-17T13:51:46.899Z,30.93
2019-01-17T13:54:14.361Z,27.53
2019-01-17T13:56:43.417Z,27.17
2019-01-17T13:59:10.842Z,30.23
2019-01-17T14:01:38.328Z,30.40
2019-01-17T14:04:05.803Z,35.80
2019-01-17T14:06:33.177Z,33.60
2019-01-17T14:09:00.615Z,32.03
2019-01-17T14:11:28.971Z,36.20
2019-01-17T14:13:56.402Z,39.47
2019-01-17T14:16:23.883Z,35.50
2019-01-17T14:18:51.229Z,39.17
2019-01-17T14:21:18.631Z,35.70
2019-01-17T14:23:46.138Z,32.47
2019-01-17T14:26:13.482Z,35.17
2019-01-17T14:28:40.972Z,34.60
2019-01-17T14:31:08.423Z,39.27
2019-01-17T14:33:35.945Z,34.50
2019-01-17T14:36:03.367Z,36.83
2019-01-17T14:38:32.498Z,44.07
2019-01-17T14:40:59.932Z,43.00
2019-01-17T14:43:27.396Z,55.37
2019-01-17T14:45:54.931Z,49.97
2019-01-17T14:48:24.288Z,53.27
2019-01-17T14:50:55.435Z,45.03
2019-01-17T14:53:22.889Z,48.03
2019-01-17T14:55:51.936Z,49.43
2019-01-17T14:58:19.542Z,55.80
2019-01-17T15:00:47.006Z,52.63
2019-01-17T15:03:14.513Z,50.27
2019-01-17T15:05:43.549Z,51.60
2019-01-17T15:08:12.561Z,58.27
2019-01-17T15:10:41.436Z,63.03
2019-01-17T15:13:11.251Z,65.33
2019-01-17T15:15:40.312Z,73.83
2019-01-17T15:18:07.694Z,78.73
2019-01-17T15:20:35.168Z,67.60
2019-01-17T15:23:03.321Z,63.87
2019-01-17T15:25:30.870Z,61.27
2019-01-17T15:27:58.392Z,59.43
2019-01-17T15:30:26.926Z,50.03
2019-01-17T15:32:54.666Z,47.00
2019-01-17T15:35:22.056Z,43.90
2019-01-17T15:37:53.791Z,42.03
2019-01-17T15:40:22.484Z,36.00
2019-01-17T15:42:50.178Z,35.97
2019-01-17T15:45:18.782Z,34.10
2019-01-17T15:47:46.286Z,41.17
2019-01-17T15:50:15.004Z,43.23
2019-01-17T15:52:43.706Z,50.73
2019-01-17T15:55:12.796Z,94.47
2019-01-17T15:57:40.778Z,70.97
2019-01-17T16:00:12.780Z,68.67
2019-01-17T16:02:40.242Z,69.50
2019-01-17T16:05:08.127Z,77.17
2019-01-17T16:07:35.604Z,63.10
2019-01-17T16:10:03.577Z,73.23
2019-01-17T16:12:31.196Z,74.20
2019-01-17T16:14:58.649Z,83.40
2019-01-17T16:17:26.228Z,83.97
2019-01-17T16:19:55.508Z,63.40
2019-01-17T16:22:22.954Z,60.50
2019-01-17T16:24:54.632Z,58.60
2019-01-17T16:27:22.022Z,61.67
2019-01-17T16:29:49.430Z,57.47
2019-01-17T16:32:18.764Z,54.97
2019-01-17T16:34:46.258Z,62.30
2019-01-17T16:37:15.187Z,58.30
2019-01-17T16:39:42.673Z,64.07
2019-01-17T16:42:10.658Z,55.37
2019-01-17T16:44:38.062Z,54.70
2019-01-17T16:47:08.010Z,51.03
2019-01-17T16:49:35.421Z,48.07
2019-01-17T16:52:04.032Z,47.57
2019-01-17T16:54:32.913Z,49.80
2019-01-17T16:57:01.916Z,47.43
2019-01-17T16:59:29.389Z,51.53
2019-01-17T17:01:56.858Z,55.80
2019-01-17T17:04:24.314Z,48.10
2019-01-17T17:06:54.126Z,50.03
2019-01-17T17:09:21.558Z,50.27
2019-01-17T17:11:48.982Z,56.67
2019-01-17T17:14:16.396Z,56.23
2019-01-17T17:16:43.880Z,55.53
2019-01-17T17:19:14.376Z,51.53
2019-01-17T17:21:44.934Z,64.87
2019-01-17T17:24:12.329Z,67.70
2019-01-17T17:26:40.537Z,60.93
2019-01-17T17:29:09.170Z,57.67
2019-01-17T17:31:37.924Z,54.57
2019-01-17T17:34:05.407Z,65.53
2019-01-17T17:36:33.940Z,60.63
2019-01-17T17:39:01.592Z,61.57
2019-01-17T17:41:29.214Z,59.93
2019-01-17T17:43:57.262Z,54.10
2019-01-17T17:46:25.219Z,52.60
2019-01-17T17:48:54.177Z,55.17
2019-01-17T17:51:22.396Z,57.27
2019-01-17T17:53:50.944Z,58.63
2019-01-17T17:56:18.438Z,64.00
2019-01-17T17:58:45.888Z,72.57
2019-01-17T18:01:14.035Z,67.63
2019-01-17T18:03:42.500Z,66.40
2019-01-17T18:06:10.019Z,81.33
2019-01-17T18:08:37.626Z,79.80
2019-01-17T18:11:06.709Z,70.37
2019-01-17T18:13:34.238Z,68.93
2019-01-17T18:16:01.723Z,68.80
2019-01-17T18:18:29.088Z,65.37
2019-01-17T18:20:59.200Z,73.67
2019-01-17T18:23:26.706Z,64.97
2019-01-17T18:25:54.137Z,71.40
2019-01-17T18:28:21.611Z,68.50
2019-01-17T18:30:50.688Z,68.83
2019-01-17T18:33:21.306Z,67.93
2019-01-17T18:35:48.895Z,67.97
2019-01-17T18:38:17.970Z,68.70
2019-01-17T18:40:45.396Z,66.87
2019-01-17T18:43:12.862Z,73.13
2019-01-17T18:45:40.500Z,70.40
2019-01-17T18:48:08.500Z,69.93
2019-01-17T18:50:35.989Z,70.37
2019-01-17T18:53:07.543Z,71.03
2019-01-17T18:55:34.999Z,76.60
2019-01-17T18:58:02.432Z,75.63
2019-01-17T19:00:31.641Z,82.37
2019-01-17T19:02:59.235Z,91.63
2019-01-17T19:05:26.766Z,79.07
2019-01-17T19:07:56.795Z,79.93
2019-01-17T19:13:04.955Z,57.27
2019-01-17T19:15:32.540Z,61.53
2019-01-17T19:18:00.072Z,65.13
2019-01-17T19:20:27.554Z,59.70
2019-01-17T19:22:54.987Z,58.77
2019-01-17T19:25:22.460Z,72.07
2019-01-17T19:27:51.159Z,70.73
2019-01-17T19:30:21.339Z,81.60
2019-01-17T19:32:51.126Z,67.20
2019-01-17T19:35:18.665Z,70.53
2019-01-17T19:37:46.131Z,74.40
2019-01-17T19:40:22.558Z,70.90
2019-01-17T19:42:51.573Z,75.90
2019-01-17T19:45:19.074Z,74.70
2019-01-17T19:47:47.246Z,73.57
2019-01-17T19:50:16.429Z,88.23
2019-01-17T19:52:44.522Z,109.20
2019-01-17T19:55:13.912Z,131.57
2019-01-17T19:57:42.149Z,133.60
2019-01-17T20:00:11.404Z,133.57
2019-01-17T20:02:41.908Z,159.37
2019-01-17T20:05:11.635Z,164.27
2019-01-17T20:07:40.660Z,131.67
2019-01-17T20:10:13.014Z,113.93
2019-01-17T20:12:40.563Z,92.00
2019-01-17T20:15:08.164Z,78.13
2019-01-17T20:17:35.654Z,76.20
2019-01-17T20:20:03.675Z,75.10
2019-01-17T20:22:32.525Z,70.60
2019-01-17T20:25:00.091Z,68.60
2019-01-17T20:27:27.555Z,71.20
2019-01-17T20:29:55.038Z,63.57
2019-01-17T20:32:22.552Z,58.60
2019-01-17T20:34:51.459Z,51.57
2019-01-17T20:37:20.153Z,54.00
2019-01-17T20:39:50.240Z,56.37
2019-01-17T20:42:17.727Z,50.03
2019-01-17T20:44:49.219Z,52.30
2019-01-17T20:47:19.181Z,53.27
2019-01-17T20:49:46.598Z,59.30
2019-01-17T20:52:14.087Z,51.10
2019-01-17T20:54:43.590Z,54.47
2019-01-17T20:57:13.451Z,49.30
2019-01-17T20:59:40.931Z,47.67
2019-01-17T21:02:10.020Z,40.30
2019-01-17T21:04:37.596Z,39.97
2019-01-17T21:07:05.738Z,45.53
2019-01-17T21:09:34.641Z,44.87
2019-01-17T21:12:02.717Z,46.20
2019-01-17T21:14:32.061Z,46.07
2019-01-17T21:16:59.590Z,50.10
2019-01-17T21:19:27.153Z,44.87
2019-01-17T21:21:54.975Z,43.27
2019-01-17T21:24:22.391Z,44.40
2019-01-17T21:26:50.937Z,45.40
2019-01-17T21:29:18.596Z,50.73
2019-01-17T21:31:46.017Z,47.73
2019-01-17T21:34:13.612Z,49.23
2019-01-17T21:36:41.070Z,48.97
2019-01-17T21:39:09.025Z,49.67
2019-01-17T21:41:36.451Z,56.03
2019-01-17T21:44:03.954Z,51.53
2019-01-17T21:46:31.465Z,53.73
2019-01-17T21:49:00.971Z,51.73
2019-01-17T21:51:28.941Z,50.70
2019-01-17T21:53:56.518Z,49.63
2019-01-17T21:56:24.014Z,41.83
2019-01-17T21:58:56.020Z,42.30
2019-01-17T22:01:21.831Z,44.43
2019-01-17T22:03:49.394Z,46.17
2019-01-17T22:06:16.975Z,45.27
2019-01-17T22:08:45.972Z,46.77
2019-01-17T22:11:13.460Z,43.60
2019-01-17T22:13:40.992Z,35.43
2019-01-17T22:16:10.218Z,38.43
2019-01-17T22:18:37.727Z,35.73
2019-01-17T22:21:05.253Z,31.10
2019-01-17T22:23:34.336Z,33.83
2019-01-17T22:26:01.864Z,29.07
2019-01-17T22:28:29.348Z,31.87
2019-01-17T22:30:56.912Z,27.83
2019-01-17T22:33:25.635Z,23.80
2019-01-17T22:35:54.768Z,24.43
2019-01-17T22:38:25.281Z,23.23
2019-01-17T22:40:52.883Z,20.83
2019-01-17T22:43:20.977Z,21.13
2019-01-17T22:45:48.483Z,21.23
2019-01-17T22:48:15.922Z,20.17
2019-01-17T22:50:43.397Z,19.37
2019-01-17T22:53:13.721Z,22.67
2019-01-17T22:55:41.285Z,22.60
2019-01-17T22:58:08.732Z,22.73
2019-01-17T23:00:50.545Z,22.97
2019-01-17T23:03:18.923Z,23.23
2019-01-17T23:05:46.541Z,23.40
2019-01-17T23:08:15.711Z,22.87
2019-01-17T23:10:43.200Z,23.43
2019-01-17T23:13:10.677Z,29.03
2019-01-17T23:15:38.210Z,25.03
2019-01-17T23:18:05.691Z,21.90
2019-01-17T23:20:41.859Z,23.83
2019-01-17T23:23:09.255Z,22.03
2019-01-17T23:25:36.692Z,21.10
2019-01-17T23:28:04.257Z,18.93
2019-01-17T23:30:33.342Z,18.67
2019-01-17T23:33:00.745Z,18.43
2019-01-17T23:35:28.352Z,23.37
2019-01-17T23:37:56.098Z,23.13
2019-01-17T23:40:23.464Z,19.17
2019-01-17T23:42:50.938Z,20.30
2019-01-17T23:45:18.539Z,15.77
2019-01-17T23:47:49.366Z,20.70
2019-01-17T23:50:17.138Z,17.77
2019-01-17T23:52:44.684Z,19.13
2019-01-17T23:55:12.198Z,15.67
2019-01-17T23:57:41.878Z,19.00
